sensor_id;sensor_type;location;lat;lon;timestamp;temperature;humidity
19941;DHT22;10132;50.864;5.176;2022-12-18T00:00:12;-6.90;99.90
19941;DHT22;10132;50.864;5.176;2022-12-18T00:02:14;-6.90;99.90
19941;DHT22;10132;50.864;5.176;2022-12-18T00:04:20;-7.00;99.90
19941;DHT22;10132;50.864;5.176;2022-12-18T00:06:24;-6.90;99.90
19941;DHT22;10132;50.864;5.176;2022-12-18T00:08:27;-6.90;99.90
19941;DHT22;10132;50.864;5.176;2022-12-18T00:10:29;-6.90;99.90
19941;DHT22;10132;50.864;5.176;2022-12-18T00:12:31;-7.00;99.90
19941;DHT22;10132;50.864;5.176;2022-12-18T00:14:34;-7.00;99.90
19941;DHT22;10132;50.864;5.176;2022-12-18T00:16:39;-7.10;99.90
19941;DHT22;10132;50.864;5.176;2022-12-18T00:18:41;-7.20;99.90
19941;DHT22;10132;50.864;5.176;2022-12-18T00:20:43;-7.20;99.90
19941;DHT22;10132;50.864;5.176;2022-12-18T00:22:48;-7.30;99.90
19941;DHT22;10132;50.864;5.176;2022-12-18T00:24:50;-7.40;99.90
19941;DHT22;10132;50.864;5.176;2022-12-18T00:26:52;-7.40;99.90
19941;DHT22;10132;50.864;5.176;2022-12-18T00:28:54;-7.50;99.90
19941;DHT22;10132;50.864;5.176;2022-12-18T00:31:00;-7.60;99.90
19941;DHT22;10132;50.864;5.176;2022-12-18T00:33:03;-7.60;99.90
19941;DHT22;10132;50.864;5.176;2022-12-18T00:35:06;-7.70;99.90
19941;DHT22;10132;50.864;5.176;2022-12-18T00:37:08;-7.80;99.90
19941;DHT22;10132;50.864;5.176;2022-12-18T00:39:11;-7.80;99.90
19941;DHT22;10132;50.864;5.176;2022-12-18T00:41:14;-8.00;99.90
19941;DHT22;10132;50.864;5.176;2022-12-18T00:43:37;-8.10;99.90
19941;DHT22;10132;50.864;5.176;2022-12-18T00:45:39;-8.20;99.90
19941;DHT22;10132;50.864;5.176;2022-12-18T00:47:41;-8.20;99.90
19941;DHT22;10132;50.864;5.176;2022-12-18T00:49:45;-8.10;99.90
19941;DHT22;10132;50.864;5.176;2022-12-18T00:51:47;-8.00;99.90
19941;DHT22;10132;50.864;5.176;2022-12-18T00:53:50;-7.90;99.90
19941;DHT22;10132;50.864;5.176;2022-12-18T00:55:52;-7.90;99.90
19941;DHT22;10132;50.864;5.176;2022-12-18T00:57:54;-8.00;99.90
19941;DHT22;10132;50.864;5.176;2022-12-18T00:59:56;-7.90;99.90
19941;DHT22;10132;50.864;5.176;2022-12-18T01:01:58;-7.70;99.90
19941;DHT22;10132;50.864;5.176;2022-12-18T01:04:01;-7.70;99.90
19941;DHT22;10132;50.864;5.176;2022-12-18T01:06:08;-7.60;99.90
19941;DHT22;10132;50.864;5.176;2022-12-18T01:08:10;-7.90;99.90
19941;DHT22;10132;50.864;5.176;2022-12-18T01:10:13;-8.00;99.90
19941;DHT22;10132;50.864;5.176;2022-12-18T01:12:15;-8.00;99.90
19941;DHT22;10132;50.864;5.176;2022-12-18T01:14:17;-7.80;99.90
19941;DHT22;10132;50.864;5.176;2022-12-18T01:16:19;-7.60;99.90
19941;DHT22;10132;50.864;5.176;2022-12-18T01:18:21;-7.50;99.90
19941;DHT22;10132;50.864;5.176;2022-12-18T01:20:23;-7.50;99.90
19941;DHT22;10132;50.864;5.176;2022-12-18T01:22:26;-7.60;99.90
19941;DHT22;10132;50.864;5.176;2022-12-18T01:24:28;-7.60;99.90
19941;DHT22;10132;50.864;5.176;2022-12-18T01:26:30;-7.60;99.90
19941;DHT22;10132;50.864;5.176;2022-12-18T01:28:32;-7.60;99.90
19941;DHT22;10132;50.864;5.176;2022-12-18T01:30:33;-7.60;99.90
19941;DHT22;10132;50.864;5.176;2022-12-18T01:32:35;-7.40;99.90
19941;DHT22;10132;50.864;5.176;2022-12-18T01:34:37;-7.20;99.90
19941;DHT22;10132;50.864;5.176;2022-12-18T01:36:39;-7.20;99.90
19941;DHT22;10132;50.864;5.176;2022-12-18T01:38:43;-7.20;99.90
19941;DHT22;10132;50.864;5.176;2022-12-18T01:40:45;-7.30;99.90
19941;DHT22;10132;50.864;5.176;2022-12-18T01:42:50;-7.40;99.90
19941;DHT22;10132;50.864;5.176;2022-12-18T01:45:00;-7.50;99.90
19941;DHT22;10132;50.864;5.176;2022-12-18T01:47:02;-7.50;99.90
19941;DHT22;10132;50.864;5.176;2022-12-18T01:49:04;-7.60;99.90
19941;DHT22;10132;50.864;5.176;2022-12-18T01:51:08;-7.80;99.90
19941;DHT22;10132;50.864;5.176;2022-12-18T01:53:14;-7.90;99.90
19941;DHT22;10132;50.864;5.176;2022-12-18T01:55:19;-7.80;99.90
19941;DHT22;10132;50.864;5.176;2022-12-18T01:57:23;-7.70;99.90
19941;DHT22;10132;50.864;5.176;2022-12-18T01:59:26;-7.70;99.90
19941;DHT22;10132;50.864;5.176;2022-12-18T02:01:30;-7.80;99.90
19941;DHT22;10132;50.864;5.176;2022-12-18T02:03:32;-7.90;99.90
19941;DHT22;10132;50.864;5.176;2022-12-18T02:05:42;-7.80;99.90
19941;DHT22;10132;50.864;5.176;2022-12-18T02:07:55;-7.70;99.90
19941;DHT22;10132;50.864;5.176;2022-12-18T02:10:03;-7.80;99.90
19941;DHT22;10132;50.864;5.176;2022-12-18T02:12:13;-7.70;99.90
19941;DHT22;10132;50.864;5.176;2022-12-18T02:14:22;-7.60;99.90
19941;DHT22;10132;50.864;5.176;2022-12-18T02:16:32;-7.50;99.90
19941;DHT22;10132;50.864;5.176;2022-12-18T02:18:38;-7.50;99.90
19941;DHT22;10132;50.864;5.176;2022-12-18T02:20:45;-7.60;99.90
19941;DHT22;10132;50.864;5.176;2022-12-18T02:22:58;-7.70;99.90
19941;DHT22;10132;50.864;5.176;2022-12-18T02:25:12;-7.60;99.90
19941;DHT22;10132;50.864;5.176;2022-12-18T02:27:18;-7.60;99.90
19941;DHT22;10132;50.864;5.176;2022-12-18T02:29:22;-7.50;99.90
19941;DHT22;10132;50.864;5.176;2022-12-18T02:31:31;-7.50;99.90
19941;DHT22;10132;50.864;5.176;2022-12-18T02:33:35;-7.50;99.90
19941;DHT22;10132;50.864;5.176;2022-12-18T02:35:39;-7.50;99.90
19941;DHT22;10132;50.864;5.176;2022-12-18T02:37:43;-7.40;99.90
19941;DHT22;10132;50.864;5.176;2022-12-18T02:39:48;-7.30;99.90
19941;DHT22;10132;50.864;5.176;2022-12-18T02:41:50;-7.30;99.90
19941;DHT22;10132;50.864;5.176;2022-12-18T02:43:56;-7.40;99.90
19941;DHT22;10132;50.864;5.176;2022-12-18T02:45:59;-7.50;99.90
19941;DHT22;10132;50.864;5.176;2022-12-18T02:48:02;-7.80;99.90
19941;DHT22;10132;50.864;5.176;2022-12-18T02:50:09;-7.80;99.90
19941;DHT22;10132;50.864;5.176;2022-12-18T02:52:23;-7.80;99.90
19941;DHT22;10132;50.864;5.176;2022-12-18T02:54:36;-8.00;99.90
19941;DHT22;10132;50.864;5.176;2022-12-18T02:56:44;-7.90;99.90
19941;DHT22;10132;50.864;5.176;2022-12-18T02:58:58;-8.20;99.90
19941;DHT22;10132;50.864;5.176;2022-12-18T03:01:03;-8.40;99.90
19941;DHT22;10132;50.864;5.176;2022-12-18T03:03:11;-8.40;99.90
19941;DHT22;10132;50.864;5.176;2022-12-18T03:05:17;-8.20;99.90
19941;DHT22;10132;50.864;5.176;2022-12-18T03:07:26;-8.00;99.90
19941;DHT22;10132;50.864;5.176;2022-12-18T03:09:32;-7.80;99.90
19941;DHT22;10132;50.864;5.176;2022-12-18T03:11:40;-7.70;99.90
19941;DHT22;10132;50.864;5.176;2022-12-18T03:14:04;-7.80;99.90
19941;DHT22;10132;50.864;5.176;2022-12-18T03:16:11;-7.80;99.90
19941;DHT22;10132;50.864;5.176;2022-12-18T03:18:17;-7.80;99.90
19941;DHT22;10132;50.864;5.176;2022-12-18T03:20:23;-7.80;99.90
19941;DHT22;10132;50.864;5.176;2022-12-18T03:22:30;-8.00;99.90
19941;DHT22;10132;50.864;5.176;2022-12-18T03:24:33;-7.90;99.90
19941;DHT22;10132;50.864;5.176;2022-12-18T03:26:44;-7.90;99.90
19941;DHT22;10132;50.864;5.176;2022-12-18T03:28:53;-8.00;99.90
19941;DHT22;10132;50.864;5.176;2022-12-18T03:30:58;-8.00;99.90
19941;DHT22;10132;50.864;5.176;2022-12-18T03:33:07;-8.00;99.90
19941;DHT22;10132;50.864;5.176;2022-12-18T03:35:11;-8.20;99.90
19941;DHT22;10132;50.864;5.176;2022-12-18T03:37:15;-8.40;99.90
19941;DHT22;10132;50.864;5.176;2022-12-18T03:39:19;-8.50;99.90
19941;DHT22;10132;50.864;5.176;2022-12-18T03:41:26;-8.50;99.90
19941;DHT22;10132;50.864;5.176;2022-12-18T03:43:37;-8.60;99.90
19941;DHT22;10132;50.864;5.176;2022-12-18T03:45:50;-8.60;99.90
19941;DHT22;10132;50.864;5.176;2022-12-18T03:47:59;-8.60;99.90
19941;DHT22;10132;50.864;5.176;2022-12-18T03:50:09;-8.60;99.90
19941;DHT22;10132;50.864;5.176;2022-12-18T03:52:17;-8.50;99.90
19941;DHT22;10132;50.864;5.176;2022-12-18T03:54:22;-8.50;99.90
19941;DHT22;10132;50.864;5.176;2022-12-18T03:56:28;-8.70;99.90
19941;DHT22;10132;50.864;5.176;2022-12-18T03:58:33;-8.60;99.90
19941;DHT22;10132;50.864;5.176;2022-12-18T04:00:37;-8.60;99.90
19941;DHT22;10132;50.864;5.176;2022-12-18T04:02:43;-8.60;99.90
19941;DHT22;10132;50.864;5.176;2022-12-18T04:04:51;-8.70;99.90
19941;DHT22;10132;50.864;5.176;2022-12-18T04:06:56;-8.60;99.90
19941;DHT22;10132;50.864;5.176;2022-12-18T04:08:59;-8.70;99.90
19941;DHT22;10132;50.864;5.176;2022-12-18T04:11:01;-8.70;99.90
19941;DHT22;10132;50.864;5.176;2022-12-18T04:13:04;-9.00;99.90
19941;DHT22;10132;50.864;5.176;2022-12-18T04:15:07;-9.30;99.90
19941;DHT22;10132;50.864;5.176;2022-12-18T04:17:09;-9.40;99.90
19941;DHT22;10132;50.864;5.176;2022-12-18T04:19:11;-9.40;99.90
19941;DHT22;10132;50.864;5.176;2022-12-18T04:21:15;-9.20;99.90
19941;DHT22;10132;50.864;5.176;2022-12-18T04:23:16;-9.10;99.90
19941;DHT22;10132;50.864;5.176;2022-12-18T04:25:18;-8.90;99.90
19941;DHT22;10132;50.864;5.176;2022-12-18T04:27:23;-8.80;99.90
19941;DHT22;10132;50.864;5.176;2022-12-18T04:29:25;-8.60;99.90
19941;DHT22;10132;50.864;5.176;2022-12-18T04:31:27;-8.40;99.90
19941;DHT22;10132;50.864;5.176;2022-12-18T04:33:29;-8.40;99.90
19941;DHT22;10132;50.864;5.176;2022-12-18T04:35:31;-8.20;99.90
19941;DHT22;10132;50.864;5.176;2022-12-18T04:37:34;-8.10;99.90
19941;DHT22;10132;50.864;5.176;2022-12-18T04:39:36;-8.00;99.90
19941;DHT22;10132;50.864;5.176;2022-12-18T04:41:38;-8.00;99.90
19941;DHT22;10132;50.864;5.176;2022-12-18T04:43:40;-7.90;99.90
19941;DHT22;10132;50.864;5.176;2022-12-18T04:45:42;-7.90;99.90
19941;DHT22;10132;50.864;5.176;2022-12-18T04:47:44;-8.00;99.90
19941;DHT22;10132;50.864;5.176;2022-12-18T04:49:46;-8.20;99.90
19941;DHT22;10132;50.864;5.176;2022-12-18T04:51:48;-8.30;99.90
19941;DHT22;10132;50.864;5.176;2022-12-18T04:53:51;-8.40;99.90
19941;DHT22;10132;50.864;5.176;2022-12-18T04:56:03;-8.50;99.90
19941;DHT22;10132;50.864;5.176;2022-12-18T04:58:05;-8.70;99.90
19941;DHT22;10132;50.864;5.176;2022-12-18T05:00:08;-8.70;99.90
19941;DHT22;10132;50.864;5.176;2022-12-18T05:02:10;-8.70;99.90
19941;DHT22;10132;50.864;5.176;2022-12-18T05:04:12;-8.70;99.90
19941;DHT22;10132;50.864;5.176;2022-12-18T05:06:14;-8.70;99.90
19941;DHT22;10132;50.864;5.176;2022-12-18T05:08:17;-8.80;99.90
19941;DHT22;10132;50.864;5.176;2022-12-18T05:10:20;-8.70;99.90
19941;DHT22;10132;50.864;5.176;2022-12-18T05:12:22;-8.70;99.90
19941;DHT22;10132;50.864;5.176;2022-12-18T05:14:24;-8.70;99.90
19941;DHT22;10132;50.864;5.176;2022-12-18T05:16:28;-8.80;99.90
19941;DHT22;10132;50.864;5.176;2022-12-18T05:18:30;-8.90;99.90
19941;DHT22;10132;50.864;5.176;2022-12-18T05:20:32;-8.90;99.90
19941;DHT22;10132;50.864;5.176;2022-12-18T05:22:34;-8.90;99.90
19941;DHT22;10132;50.864;5.176;2022-12-18T05:24:36;-8.80;99.90
19941;DHT22;10132;50.864;5.176;2022-12-18T05:26:39;-8.80;99.90
19941;DHT22;10132;50.864;5.176;2022-12-18T05:28:41;-8.80;99.90
19941;DHT22;10132;50.864;5.176;2022-12-18T05:30:47;-8.90;99.90
19941;DHT22;10132;50.864;5.176;2022-12-18T05:32:49;-8.70;99.90
19941;DHT22;10132;50.864;5.176;2022-12-18T05:34:51;-8.80;99.90
19941;DHT22;10132;50.864;5.176;2022-12-18T05:36:53;-8.90;99.90
19941;DHT22;10132;50.864;5.176;2022-12-18T05:38:55;-8.90;99.90
19941;DHT22;10132;50.864;5.176;2022-12-18T05:40:57;-9.00;99.90
19941;DHT22;10132;50.864;5.176;2022-12-18T05:43:00;-9.00;99.90
19941;DHT22;10132;50.864;5.176;2022-12-18T05:45:03;-9.00;99.90
19941;DHT22;10132;50.864;5.176;2022-12-18T05:47:05;-8.90;99.90
19941;DHT22;10132;50.864;5.176;2022-12-18T05:49:07;-8.90;99.90
19941;DHT22;10132;50.864;5.176;2022-12-18T05:51:11;-8.90;99.90
19941;DHT22;10132;50.864;5.176;2022-12-18T05:53:14;-8.90;99.90
19941;DHT22;10132;50.864;5.176;2022-12-18T05:55:16;-9.00;99.90
19941;DHT22;10132;50.864;5.176;2022-12-18T05:57:18;-9.00;99.90
19941;DHT22;10132;50.864;5.176;2022-12-18T05:59:22;-8.90;99.90
19941;DHT22;10132;50.864;5.176;2022-12-18T06:01:25;-8.80;99.90
19941;DHT22;10132;50.864;5.176;2022-12-18T06:03:27;-8.70;99.90
19941;DHT22;10132;50.864;5.176;2022-12-18T06:05:34;-8.60;99.90
19941;DHT22;10132;50.864;5.176;2022-12-18T06:07:36;-8.50;99.90
19941;DHT22;10132;50.864;5.176;2022-12-18T06:09:38;-8.40;99.90
19941;DHT22;10132;50.864;5.176;2022-12-18T06:11:40;-8.50;99.90
19941;DHT22;10132;50.864;5.176;2022-12-18T06:13:42;-8.70;99.90
19941;DHT22;10132;50.864;5.176;2022-12-18T06:15:45;-8.80;99.90
19941;DHT22;10132;50.864;5.176;2022-12-18T06:17:47;-8.80;99.90
19941;DHT22;10132;50.864;5.176;2022-12-18T06:19:49;-8.60;99.90
19941;DHT22;10132;50.864;5.176;2022-12-18T06:21:51;-8.50;99.90
19941;DHT22;10132;50.864;5.176;2022-12-18T06:23:53;-8.40;99.90
19941;DHT22;10132;50.864;5.176;2022-12-18T06:25:55;-8.30;99.90
19941;DHT22;10132;50.864;5.176;2022-12-18T06:27:57;-8.50;99.90
19941;DHT22;10132;50.864;5.176;2022-12-18T06:29:59;-8.70;99.90
19941;DHT22;10132;50.864;5.176;2022-12-18T06:32:03;-8.70;99.90
19941;DHT22;10132;50.864;5.176;2022-12-18T06:34:05;-8.90;99.90
19941;DHT22;10132;50.864;5.176;2022-12-18T06:36:09;-8.90;99.90
19941;DHT22;10132;50.864;5.176;2022-12-18T06:38:11;-8.90;99.90
19941;DHT22;10132;50.864;5.176;2022-12-18T06:40:13;-8.70;99.90
19941;DHT22;10132;50.864;5.176;2022-12-18T06:42:15;-8.70;99.90
19941;DHT22;10132;50.864;5.176;2022-12-18T06:44:17;-8.60;99.90
19941;DHT22;10132;50.864;5.176;2022-12-18T06:46:19;-8.60;99.90
19941;DHT22;10132;50.864;5.176;2022-12-18T06:48:23;-8.70;99.90
19941;DHT22;10132;50.864;5.176;2022-12-18T06:50:25;-8.60;99.90
19941;DHT22;10132;50.864;5.176;2022-12-18T06:52:26;-8.60;99.90
19941;DHT22;10132;50.864;5.176;2022-12-18T06:54:28;-8.60;99.90
19941;DHT22;10132;50.864;5.176;2022-12-18T06:56:31;-8.60;99.90
19941;DHT22;10132;50.864;5.176;2022-12-18T06:58:33;-8.80;99.90
19941;DHT22;10132;50.864;5.176;2022-12-18T07:00:35;-9.00;99.90
19941;DHT22;10132;50.864;5.176;2022-12-18T07:02:39;-9.10;99.90
19941;DHT22;10132;50.864;5.176;2022-12-18T07:04:43;-9.30;99.90
19941;DHT22;10132;50.864;5.176;2022-12-18T07:06:45;-9.30;99.90
19941;DHT22;10132;50.864;5.176;2022-12-18T07:08:47;-9.40;99.90
19941;DHT22;10132;50.864;5.176;2022-12-18T07:10:49;-9.40;99.90
19941;DHT22;10132;50.864;5.176;2022-12-18T07:12:51;-9.40;99.90
19941;DHT22;10132;50.864;5.176;2022-12-18T07:14:53;-9.30;99.90
19941;DHT22;10132;50.864;5.176;2022-12-18T07:16:55;-9.30;99.90
19941;DHT22;10132;50.864;5.176;2022-12-18T07:18:57;-9.30;99.90
19941;DHT22;10132;50.864;5.176;2022-12-18T07:21:04;-9.20;99.90
19941;DHT22;10132;50.864;5.176;2022-12-18T07:23:06;-9.00;99.90
19941;DHT22;10132;50.864;5.176;2022-12-18T07:25:08;-9.00;99.90
19941;DHT22;10132;50.864;5.176;2022-12-18T07:27:10;-8.90;99.90
19941;DHT22;10132;50.864;5.176;2022-12-18T07:29:12;-8.80;99.90
19941;DHT22;10132;50.864;5.176;2022-12-18T07:31:17;-8.80;99.90
19941;DHT22;10132;50.864;5.176;2022-12-18T07:33:19;-8.80;99.90
19941;DHT22;10132;50.864;5.176;2022-12-18T07:35:21;-8.60;99.90
19941;DHT22;10132;50.864;5.176;2022-12-18T07:37:24;-8.60;99.90
19941;DHT22;10132;50.864;5.176;2022-12-18T07:39:26;-8.60;99.90
19941;DHT22;10132;50.864;5.176;2022-12-18T07:41:28;-8.70;99.90
19941;DHT22;10132;50.864;5.176;2022-12-18T07:43:30;-8.70;99.90
19941;DHT22;10132;50.864;5.176;2022-12-18T07:45:32;-8.50;99.90
19941;DHT22;10132;50.864;5.176;2022-12-18T07:47:35;-8.30;99.90
19941;DHT22;10132;50.864;5.176;2022-12-18T07:49:37;-8.00;99.90
19941;DHT22;10132;50.864;5.176;2022-12-18T07:51:39;-7.90;99.90
19941;DHT22;10132;50.864;5.176;2022-12-18T07:53:43;-7.70;99.90
19941;DHT22;10132;50.864;5.176;2022-12-18T07:55:45;-7.70;99.90
19941;DHT22;10132;50.864;5.176;2022-12-18T07:57:46;-7.70;99.90
19941;DHT22;10132;50.864;5.176;2022-12-18T07:59:48;-7.60;99.90
19941;DHT22;10132;50.864;5.176;2022-12-18T08:01:50;-7.50;99.90
19941;DHT22;10132;50.864;5.176;2022-12-18T08:03:52;-7.30;99.90
19941;DHT22;10132;50.864;5.176;2022-12-18T08:05:59;-7.40;99.90
19941;DHT22;10132;50.864;5.176;2022-12-18T08:08:01;-7.30;99.90
19941;DHT22;10132;50.864;5.176;2022-12-18T08:10:05;-7.20;99.90
19941;DHT22;10132;50.864;5.176;2022-12-18T08:12:07;-7.20;99.90
19941;DHT22;10132;50.864;5.176;2022-12-18T08:14:09;-7.10;99.90
19941;DHT22;10132;50.864;5.176;2022-12-18T08:16:11;-7.00;99.90
19941;DHT22;10132;50.864;5.176;2022-12-18T08:18:13;-6.90;99.90
19941;DHT22;10132;50.864;5.176;2022-12-18T08:20:15;-6.90;99.90
19941;DHT22;10132;50.864;5.176;2022-12-18T08:22:18;-6.80;99.90
19941;DHT22;10132;50.864;5.176;2022-12-18T08:24:20;-6.70;99.90
19941;DHT22;10132;50.864;5.176;2022-12-18T08:26:25;-6.50;99.90
19941;DHT22;10132;50.864;5.176;2022-12-18T08:28:27;-6.50;99.90
19941;DHT22;10132;50.864;5.176;2022-12-18T08:30:29;-6.50;99.90
19941;DHT22;10132;50.864;5.176;2022-12-18T08:32:31;-6.30;99.90
19941;DHT22;10132;50.864;5.176;2022-12-18T08:34:34;-6.10;99.90
19941;DHT22;10132;50.864;5.176;2022-12-18T08:36:36;-5.70;99.90
19941;DHT22;10132;50.864;5.176;2022-12-18T08:38:38;-5.50;99.90
19941;DHT22;10132;50.864;5.176;2022-12-18T08:40:40;-5.30;99.90
19941;DHT22;10132;50.864;5.176;2022-12-18T08:42:43;-5.10;99.90
19941;DHT22;10132;50.864;5.176;2022-12-18T08:45:03;-5.00;99.90
19941;DHT22;10132;50.864;5.176;2022-12-18T08:47:06;-4.90;99.90
19941;DHT22;10132;50.864;5.176;2022-12-18T08:49:10;-4.70;99.90
19941;DHT22;10132;50.864;5.176;2022-12-18T08:51:12;-4.60;99.90
19941;DHT22;10132;50.864;5.176;2022-12-18T08:53:14;-4.50;99.90
19941;DHT22;10132;50.864;5.176;2022-12-18T08:55:16;-4.40;99.90
19941;DHT22;10132;50.864;5.176;2022-12-18T08:57:18;-4.20;99.90
19941;DHT22;10132;50.864;5.176;2022-12-18T08:59:21;-4.00;99.90
19941;DHT22;10132;50.864;5.176;2022-12-18T09:01:24;-3.90;99.90
19941;DHT22;10132;50.864;5.176;2022-12-18T09:03:26;-3.90;99.90
19941;DHT22;10132;50.864;5.176;2022-12-18T09:05:28;-3.80;99.90
19941;DHT22;10132;50.864;5.176;2022-12-18T09:07:30;-3.70;99.90
19941;DHT22;10132;50.864;5.176;2022-12-18T09:09:31;-3.60;99.90
19941;DHT22;10132;50.864;5.176;2022-12-18T09:11:33;-3.50;99.90
19941;DHT22;10132;50.864;5.176;2022-12-18T09:13:35;-3.50;99.90
19941;DHT22;10132;50.864;5.176;2022-12-18T09:15:42;-3.40;99.90
19941;DHT22;10132;50.864;5.176;2022-12-18T09:17:45;-3.30;99.90
19941;DHT22;10132;50.864;5.176;2022-12-18T09:19:51;-3.30;99.90
19941;DHT22;10132;50.864;5.176;2022-12-18T09:21:53;-3.20;99.90
19941;DHT22;10132;50.864;5.176;2022-12-18T09:23:56;-3.10;99.90
19941;DHT22;10132;50.864;5.176;2022-12-18T09:25:59;-2.90;99.90
19941;DHT22;10132;50.864;5.176;2022-12-18T09:28:01;-2.90;99.90
19941;DHT22;10132;50.864;5.176;2022-12-18T09:30:04;-2.80;99.90
19941;DHT22;10132;50.864;5.176;2022-12-18T09:32:08;-2.70;99.90
19941;DHT22;10132;50.864;5.176;2022-12-18T09:34:10;-2.70;99.90
19941;DHT22;10132;50.864;5.176;2022-12-18T09:36:14;-2.70;99.90
19941;DHT22;10132;50.864;5.176;2022-12-18T09:38:18;-2.70;99.90
19941;DHT22;10132;50.864;5.176;2022-12-18T09:40:25;-2.70;99.90
19941;DHT22;10132;50.864;5.176;2022-12-18T09:42:29;-2.50;99.90
19941;DHT22;10132;50.864;5.176;2022-12-18T09:44:33;-2.40;99.90
19941;DHT22;10132;50.864;5.176;2022-12-18T09:46:42;-2.40;99.90
19941;DHT22;10132;50.864;5.176;2022-12-18T09:48:49;-2.40;99.90
19941;DHT22;10132;50.864;5.176;2022-12-18T09:50:53;-2.30;99.90
19941;DHT22;10132;50.864;5.176;2022-12-18T09:53:02;-2.20;99.90
19941;DHT22;10132;50.864;5.176;2022-12-18T09:55:11;-1.90;99.90
19941;DHT22;10132;50.864;5.176;2022-12-18T09:57:19;-1.90;99.90
19941;DHT22;10132;50.864;5.176;2022-12-18T09:59:25;-1.80;99.90
19941;DHT22;10132;50.864;5.176;2022-12-18T10:01:29;-1.70;99.90
19941;DHT22;10132;50.864;5.176;2022-12-18T10:03:32;-1.70;99.90
19941;DHT22;10132;50.864;5.176;2022-12-18T10:05:39;-1.60;99.90
19941;DHT22;10132;50.864;5.176;2022-12-18T10:07:55;-1.60;99.90
19941;DHT22;10132;50.864;5.176;2022-12-18T10:10:03;-1.60;99.90
19941;DHT22;10132;50.864;5.176;2022-12-18T10:12:14;-1.50;99.90
19941;DHT22;10132;50.864;5.176;2022-12-18T10:14:22;-1.30;99.90
19941;DHT22;10132;50.864;5.176;2022-12-18T10:16:27;-1.20;99.90
19941;DHT22;10132;50.864;5.176;2022-12-18T10:18:42;-1.10;99.90
19941;DHT22;10132;50.864;5.176;2022-12-18T10:20:55;-1.10;99.90
19941;DHT22;10132;50.864;5.176;2022-12-18T10:23:05;-1.00;99.90
19941;DHT22;10132;50.864;5.176;2022-12-18T10:25:20;-1.00;99.90
19941;DHT22;10132;50.864;5.176;2022-12-18T10:27:25;-1.00;99.90
19941;DHT22;10132;50.864;5.176;2022-12-18T10:29:27;-1.00;99.90
19941;DHT22;10132;50.864;5.176;2022-12-18T10:31:29;-0.90;99.90
19941;DHT22;10132;50.864;5.176;2022-12-18T10:33:32;-0.70;99.90
19941;DHT22;10132;50.864;5.176;2022-12-18T10:35:35;-0.60;99.90
19941;DHT22;10132;50.864;5.176;2022-12-18T10:37:59;-0.60;99.90
19941;DHT22;10132;50.864;5.176;2022-12-18T10:40:10;-0.50;99.90
19941;DHT22;10132;50.864;5.176;2022-12-18T10:42:17;-0.50;99.90
19941;DHT22;10132;50.864;5.176;2022-12-18T10:44:21;-0.40;99.90
19941;DHT22;10132;50.864;5.176;2022-12-18T10:46:23;-0.40;99.90
19941;DHT22;10132;50.864;5.176;2022-12-18T10:48:25;-0.40;99.90
19941;DHT22;10132;50.864;5.176;2022-12-18T10:50:30;-0.30;99.90
19941;DHT22;10132;50.864;5.176;2022-12-18T10:52:33;-0.30;99.90
19941;DHT22;10132;50.864;5.176;2022-12-18T10:54:36;-0.30;99.90
19941;DHT22;10132;50.864;5.176;2022-12-18T10:56:39;-0.20;99.90
19941;DHT22;10132;50.864;5.176;2022-12-18T10:58:41;-0.20;99.90
19941;DHT22;10132;50.864;5.176;2022-12-18T11:00:43;-0.20;99.90
19941;DHT22;10132;50.864;5.176;2022-12-18T11:02:45;-0.20;99.90
19941;DHT22;10132;50.864;5.176;2022-12-18T11:04:51;-0.20;99.90
19941;DHT22;10132;50.864;5.176;2022-12-18T11:07:01;-0.20;99.90
19941;DHT22;10132;50.864;5.176;2022-12-18T11:09:04;-0.20;99.90
19941;DHT22;10132;50.864;5.176;2022-12-18T11:11:18;-0.10;99.90
19941;DHT22;10132;50.864;5.176;2022-12-18T11:13:21;-0.10;99.90
19941;DHT22;10132;50.864;5.176;2022-12-18T11:15:27;0.00;99.90
19941;DHT22;10132;50.864;5.176;2022-12-18T11:17:32;0.00;99.90
19941;DHT22;10132;50.864;5.176;2022-12-18T11:19:36;0.10;99.90
19941;DHT22;10132;50.864;5.176;2022-12-18T11:21:39;0.10;99.90
19941;DHT22;10132;50.864;5.176;2022-12-18T11:23:46;0.20;99.90
19941;DHT22;10132;50.864;5.176;2022-12-18T11:25:54;0.30;99.90
19941;DHT22;10132;50.864;5.176;2022-12-18T11:28:00;0.30;99.90
19941;DHT22;10132;50.864;5.176;2022-12-18T11:30:09;0.30;99.90
19941;DHT22;10132;50.864;5.176;2022-12-18T11:32:31;0.30;99.90
19941;DHT22;10132;50.864;5.176;2022-12-18T11:34:34;0.40;99.90
19941;DHT22;10132;50.864;5.176;2022-12-18T11:36:40;0.40;99.90
19941;DHT22;10132;50.864;5.176;2022-12-18T11:38:45;0.50;99.90
19941;DHT22;10132;50.864;5.176;2022-12-18T11:40:53;0.50;99.90
19941;DHT22;10132;50.864;5.176;2022-12-18T11:43:02;0.60;99.90
19941;DHT22;10132;50.864;5.176;2022-12-18T11:45:26;0.60;99.90
19941;DHT22;10132;50.864;5.176;2022-12-18T11:47:34;0.60;99.90
19941;DHT22;10132;50.864;5.176;2022-12-18T11:49:41;0.60;99.90
19941;DHT22;10132;50.864;5.176;2022-12-18T11:51:47;0.60;99.90
19941;DHT22;10132;50.864;5.176;2022-12-18T11:53:51;0.60;99.90
19941;DHT22;10132;50.864;5.176;2022-12-18T11:56:01;0.70;99.90
19941;DHT22;10132;50.864;5.176;2022-12-18T11:58:12;0.70;99.90
19941;DHT22;10132;50.864;5.176;2022-12-18T12:00:17;0.70;99.90
19941;DHT22;10132;50.864;5.176;2022-12-18T12:02:33;0.80;99.90
19941;DHT22;10132;50.864;5.176;2022-12-18T12:04:51;0.80;99.90
19941;DHT22;10132;50.864;5.176;2022-12-18T12:07:05;0.80;99.90
19941;DHT22;10132;50.864;5.176;2022-12-18T12:09:17;0.80;99.90
19941;DHT22;10132;50.864;5.176;2022-12-18T12:11:29;0.70;99.90
19941;DHT22;10132;50.864;5.176;2022-12-18T12:13:44;0.80;99.90
19941;DHT22;10132;50.864;5.176;2022-12-18T12:15:56;0.80;99.90
19941;DHT22;10132;50.864;5.176;2022-12-18T12:18:05;0.80;99.90
19941;DHT22;10132;50.864;5.176;2022-12-18T12:20:16;0.90;99.90
19941;DHT22;10132;50.864;5.176;2022-12-18T12:22:29;1.00;99.90
19941;DHT22;10132;50.864;5.176;2022-12-18T12:24:40;1.00;99.90
19941;DHT22;10132;50.864;5.176;2022-12-18T12:26:55;1.00;99.90
19941;DHT22;10132;50.864;5.176;2022-12-18T12:29:13;1.00;99.90
19941;DHT22;10132;50.864;5.176;2022-12-18T12:31:31;1.10;99.90
19941;DHT22;10132;50.864;5.176;2022-12-18T12:33:40;1.10;99.90
19941;DHT22;10132;50.864;5.176;2022-12-18T12:35:49;1.10;99.90
19941;DHT22;10132;50.864;5.176;2022-12-18T12:38:04;1.20;99.90
19941;DHT22;10132;50.864;5.176;2022-12-18T12:40:10;1.30;99.90
19941;DHT22;10132;50.864;5.176;2022-12-18T12:42:18;1.30;99.90
19941;DHT22;10132;50.864;5.176;2022-12-18T12:44:44;1.30;99.90
19941;DHT22;10132;50.864;5.176;2022-12-18T12:46:50;1.40;99.90
19941;DHT22;10132;50.864;5.176;2022-12-18T12:48:55;1.30;99.90
19941;DHT22;10132;50.864;5.176;2022-12-18T12:50:59;1.20;99.90
19941;DHT22;10132;50.864;5.176;2022-12-18T12:53:06;1.20;99.90
19941;DHT22;10132;50.864;5.176;2022-12-18T12:55:15;1.20;99.90
19941;DHT22;10132;50.864;5.176;2022-12-18T12:57:21;1.20;99.90
19941;DHT22;10132;50.864;5.176;2022-12-18T12:59:31;1.10;99.90
19941;DHT22;10132;50.864;5.176;2022-12-18T13:01:43;1.10;99.90
19941;DHT22;10132;50.864;5.176;2022-12-18T13:03:56;1.10;99.90
19941;DHT22;10132;50.864;5.176;2022-12-18T13:06:02;1.20;99.90
19941;DHT22;10132;50.864;5.176;2022-12-18T13:08:08;1.10;99.90
19941;DHT22;10132;50.864;5.176;2022-12-18T13:10:26;1.20;99.90